createdAt,value
2023-04-02T00:00:29.910Z,10.76
2023-04-02T00:02:34.020Z,10.69
2023-04-02T00:04:38.093Z,10.53
2023-04-02T00:06:44.898Z,10.52
2023-04-02T00:08:48.898Z,10.56
2023-04-02T00:10:53.805Z,10.68
2023-04-02T00:13:01.758Z,10.64
2023-04-02T00:15:07.509Z,10.61
2023-04-02T00:17:10.612Z,10.58
2023-04-02T00:19:17.803Z,10.63
2023-04-02T00:21:23.823Z,10.66
2023-04-02T00:23:27.614Z,10.67
2023-04-02T00:25:35.284Z,10.70
2023-04-02T00:27:38.276Z,10.71
2023-04-02T00:29:47.493Z,10.71
2023-04-02T00:31:55.527Z,10.72
2023-04-02T00:34:00.529Z,10.73
2023-04-02T00:36:07.806Z,10.73
2023-04-02T00:38:20.977Z,10.67
2023-04-02T00:40:27.249Z,10.64
2023-04-02T00:42:32.120Z,10.63
2023-04-02T00:44:37.875Z,10.57
2023-04-02T00:46:46.700Z,10.52
2023-04-02T00:48:55.412Z,10.55
2023-04-02T00:51:02.136Z,10.54
2023-04-02T00:53:11.564Z,10.54
2023-04-02T00:55:18.405Z,10.55
2023-04-02T00:57:25.525Z,10.57
2023-04-02T00:59:31.768Z,10.59
2023-04-02T01:01:42.539Z,10.60
2023-04-02T01:03:59.051Z,10.54
2023-04-02T01:06:10.742Z,10.48
2023-04-02T01:08:21.750Z,10.51
2023-04-02T01:10:40.316Z,10.55
2023-04-02T01:12:56.727Z,10.56
2023-04-02T01:15:09.811Z,10.58
2023-04-02T01:17:26.362Z,10.59
2023-04-02T01:20:07.067Z,10.57
2023-04-02T01:22:15.660Z,10.59
2023-04-02T01:24:20.291Z,10.56
2023-04-02T01:26:41.873Z,10.56
2023-04-02T01:29:01.355Z,10.56
2023-04-02T01:31:05.657Z,10.52
2023-04-02T01:33:08.681Z,10.50
2023-04-02T01:35:12.107Z,10.50
2023-04-02T01:37:27.399Z,10.52
2023-04-02T01:39:35.913Z,10.44
2023-04-02T01:41:47.376Z,10.50
2023-04-02T01:43:57.124Z,10.51
2023-04-02T01:46:00.680Z,10.44
2023-04-02T01:48:07.206Z,10.43
2023-04-02T01:50:23.455Z,10.50
2023-04-02T01:52:37.891Z,10.53
2023-04-02T01:54:42.596Z,10.39
2023-04-02T01:56:47.183Z,10.37
2023-04-02T01:58:51.446Z,10.34
2023-04-02T02:00:59.471Z,10.35
2023-04-02T02:03:03.447Z,10.39
2023-04-02T02:05:07.499Z,10.39
2023-04-02T02:07:15.989Z,10.41
2023-04-02T02:09:24.828Z,10.40
2023-04-02T02:11:30.557Z,10.34
2023-04-02T02:13:33.495Z,10.39
2023-04-02T02:15:37.810Z,10.38
2023-04-02T02:17:40.739Z,10.42
2023-04-02T02:19:46.465Z,10.45
2023-04-02T02:21:52.488Z,10.46
2023-04-02T02:23:56.625Z,10.40
2023-04-02T02:25:59.777Z,10.36
2023-04-02T02:28:07.535Z,10.34
2023-04-02T02:30:15.430Z,10.34
2023-04-02T02:32:22.353Z,10.34
2023-04-02T02:34:34.954Z,10.39
2023-04-02T02:36:45.819Z,10.41
2023-04-02T02:38:55.563Z,10.41
2023-04-02T02:41:14.332Z,10.39
2023-04-02T02:43:20.089Z,10.37
2023-04-02T02:45:28.792Z,10.42
2023-04-02T02:47:36.238Z,10.34
2023-04-02T02:49:44.185Z,10.29
2023-04-02T02:51:50.762Z,10.29
2023-04-02T02:54:04.593Z,10.32
2023-04-02T02:56:09.844Z,10.42
2023-04-02T02:58:19.267Z,10.41
2023-04-02T03:00:36.965Z,10.42
2023-04-02T03:02:43.394Z,10.42
2023-04-02T03:04:49.289Z,10.37
2023-04-02T03:06:54.297Z,10.35
2023-04-02T03:09:05.804Z,10.31
2023-04-02T03:11:15.257Z,10.31
2023-04-02T03:13:23.233Z,10.36
2023-04-02T03:15:35.462Z,10.37
2023-04-02T03:17:45.419Z,10.37
2023-04-02T03:19:55.607Z,10.40
2023-04-02T03:22:04.809Z,10.38
2023-04-02T03:24:16.023Z,10.41
2023-04-02T03:26:23.860Z,10.46
2023-04-02T03:28:31.619Z,10.35
2023-04-02T03:30:41.489Z,10.26
2023-04-02T03:32:49.714Z,10.11
2023-04-02T03:34:57.797Z,10.16
2023-04-02T03:37:06.477Z,10.17
2023-04-02T03:39:15.939Z,10.20
2023-04-02T03:41:34.887Z,10.10
2023-04-02T03:43:41.897Z,10.04
2023-04-02T03:45:51.196Z,10.06
2023-04-02T03:48:00.264Z,10.08
2023-04-02T03:50:08.114Z,10.16
2023-04-02T03:52:14.448Z,10.13
2023-04-02T03:54:18.652Z,10.22
2023-04-02T03:56:28.975Z,10.21
2023-04-02T03:58:39.195Z,10.25
2023-04-02T04:00:49.845Z,10.35
2023-04-02T04:02:57.425Z,10.32
2023-04-02T04:05:01.153Z,10.32
2023-04-02T04:07:04.594Z,10.31
2023-04-02T04:09:11.994Z,10.19
2023-04-02T04:11:17.947Z,10.22
2023-04-02T04:13:26.529Z,10.24
2023-04-02T04:15:36.465Z,10.25
2023-04-02T04:17:53.827Z,10.28
2023-04-02T04:20:17.149Z,10.21
2023-04-02T04:22:30.479Z,10.12
2023-04-02T04:24:39.814Z,10.14
2023-04-02T04:26:49.532Z,10.16
2023-04-02T04:29:05.423Z,10.17
2023-04-02T04:31:20.956Z,10.21
2023-04-02T04:33:29.051Z,10.19
2023-04-02T04:35:40.319Z,10.21
2023-04-02T04:37:53.605Z,10.19
2023-04-02T04:40:00.180Z,10.20
2023-04-02T04:42:06.373Z,10.16
2023-04-02T04:44:18.141Z,10.15
2023-04-02T04:46:29.333Z,10.14
2023-04-02T04:48:37.721Z,10.16
2023-04-02T04:50:50.172Z,10.20
2023-04-02T04:52:53.528Z,10.23
2023-04-02T04:54:56.907Z,10.20
2023-04-02T04:57:04.816Z,10.27
2023-04-02T04:59:18.815Z,10.27
2023-04-02T05:01:28.330Z,10.29
2023-04-02T05:03:36.481Z,10.27
2023-04-02T05:05:43.759Z,10.29
2023-04-02T05:07:52.060Z,10.28
2023-04-02T05:10:00.773Z,10.29
2023-04-02T05:12:13.311Z,10.34
2023-04-02T05:14:24.772Z,10.31
2023-04-02T05:16:37.781Z,10.29
2023-04-02T05:18:44.568Z,10.29
2023-04-02T05:20:55.872Z,10.27
2023-04-02T05:23:05.077Z,10.28
2023-04-02T05:25:16.695Z,10.27
2023-04-02T05:27:29.612Z,10.29
2023-04-02T05:29:37.917Z,10.30
2023-04-02T05:31:46.482Z,10.33
2023-04-02T05:33:50.750Z,10.31
2023-04-02T05:36:00.793Z,10.31
2023-04-02T05:38:06.590Z,10.28
2023-04-02T05:40:16.289Z,10.28
2023-04-02T05:42:24.907Z,10.25
2023-04-02T05:44:35.831Z,10.26
2023-04-02T05:46:47.760Z,10.25
2023-04-02T05:48:56.388Z,10.21
2023-04-02T05:51:02.004Z,10.25
2023-04-02T05:53:12.149Z,10.29
2023-04-02T05:55:30.498Z,10.29
2023-04-02T05:57:46.821Z,10.30
2023-04-02T06:00:01.117Z,10.30
2023-04-02T06:02:12.314Z,10.27
2023-04-02T06:04:22.411Z,10.28
2023-04-02T06:06:45.495Z,10.32
2023-04-02T06:08:57.717Z,10.30
2023-04-02T06:11:08.935Z,10.32
2023-04-02T06:13:18.523Z,10.28
2023-04-02T06:15:23.459Z,10.29
2023-04-02T06:17:34.744Z,10.23
2023-04-02T06:19:39.347Z,10.22
2023-04-02T06:21:46.248Z,10.20
2023-04-02T06:23:54.989Z,10.24
2023-04-02T06:26:04.372Z,10.31
2023-04-02T06:28:15.333Z,10.33
2023-04-02T06:30:29.355Z,10.33
2023-04-02T06:32:32.796Z,10.38
2023-04-02T06:34:39.112Z,10.39
2023-04-02T06:36:47.400Z,10.40
2023-04-02T06:38:51.858Z,10.44
2023-04-02T06:40:59.096Z,10.44
2023-04-02T06:43:33.211Z,10.39
2023-04-02T06:45:52.787Z,10.33
2023-04-02T06:48:17.533Z,10.37
2023-04-02T06:50:26.513Z,10.40
2023-04-02T06:52:35.757Z,10.46
2023-04-02T06:54:39.852Z,10.44
2023-04-02T06:56:47.359Z,10.50
2023-04-02T06:58:55.985Z,10.55
2023-04-02T07:01:00.000Z,10.61
2023-04-02T07:03:28.085Z,10.63
2023-04-02T07:05:58.215Z,10.69
2023-04-02T07:08:02.482Z,10.76
2023-04-02T07:10:06.872Z,10.68
2023-04-02T07:12:12.947Z,10.81
2023-04-02T07:14:16.528Z,10.68
2023-04-02T07:16:22.013Z,10.77
2023-04-02T07:18:27.737Z,10.77
2023-04-02T07:20:33.554Z,10.81
2023-04-02T07:22:41.001Z,10.85
2023-04-02T07:24:45.499Z,10.88
2023-04-02T07:26:48.673Z,10.90
2023-04-02T07:28:51.512Z,10.92
2023-04-02T07:30:55.582Z,10.94
2023-04-02T07:32:58.439Z,10.95
2023-04-02T07:35:01.394Z,10.90
2023-04-02T07:37:04.706Z,10.93
2023-04-02T07:39:07.496Z,10.97
2023-04-02T07:41:12.892Z,10.98
2023-04-02T07:43:15.804Z,10.98
2023-04-02T07:45:18.674Z,10.98
2023-04-02T07:47:21.431Z,11.03
2023-04-02T07:49:24.354Z,11.07
2023-04-02T07:51:27.261Z,11.10
2023-04-02T07:53:32.825Z,11.13
2023-04-02T07:55:36.308Z,11.06
2023-04-02T07:57:44.942Z,11.04
2023-04-02T07:59:49.257Z,10.92
2023-04-02T08:01:53.571Z,10.87
2023-04-02T08:03:57.827Z,10.98
2023-04-02T08:06:00.720Z,11.07
2023-04-02T08:08:03.716Z,11.24
2023-04-02T08:10:08.511Z,11.32
2023-04-02T08:12:13.749Z,11.20
2023-04-02T08:14:17.866Z,11.26
2023-04-02T08:16:20.739Z,11.28
2023-04-02T08:18:24.209Z,11.37
2023-04-02T08:20:27.346Z,11.42
2023-04-02T08:22:30.505Z,11.46
2023-04-02T08:24:33.377Z,11.48
2023-04-02T08:26:36.432Z,11.52
2023-04-02T08:28:39.218Z,11.62
2023-04-02T08:30:43.565Z,11.68
2023-04-02T08:32:46.773Z,11.68
2023-04-02T08:34:49.576Z,11.67
2023-04-02T08:36:56.468Z,11.75
2023-04-02T08:38:59.349Z,11.72
2023-04-02T08:41:05.625Z,11.76
2023-04-02T08:43:24.442Z,11.74
2023-04-02T08:45:40.192Z,11.78
2023-04-02T08:47:47.152Z,11.79
2023-04-02T08:49:55.697Z,11.79
2023-04-02T08:51:58.641Z,11.90
2023-04-02T08:54:08.772Z,11.96
2023-04-02T08:56:19.303Z,11.90
2023-04-02T08:58:33.497Z,11.84
2023-04-02T09:00:40.188Z,11.96
2023-04-02T09:02:48.323Z,11.95
2023-04-02T09:04:51.779Z,11.91
2023-04-02T09:06:57.211Z,11.94
2023-04-02T09:09:01.167Z,11.96
2023-04-02T09:11:08.866Z,12.03
2023-04-02T09:13:18.926Z,11.99
2023-04-02T09:15:29.383Z,12.03
2023-04-02T09:17:42.773Z,12.02
2023-04-02T09:19:56.911Z,12.08
2023-04-02T09:22:08.891Z,12.12
2023-04-02T09:24:13.280Z,12.15
2023-04-02T09:26:23.535Z,12.16
2023-04-02T09:28:27.074Z,12.16
2023-04-02T09:30:43.749Z,12.27
2023-04-02T09:32:51.076Z,12.28
2023-04-02T09:35:14.983Z,12.36
2023-04-02T09:37:25.390Z,12.33
2023-04-02T09:39:28.152Z,12.29
2023-04-02T09:41:32.088Z,12.25
2023-04-02T09:43:37.022Z,12.25
2023-04-02T09:45:42.076Z,12.27
2023-04-02T09:47:44.894Z,12.28
2023-04-02T09:49:47.729Z,12.36
2023-04-02T09:52:22.199Z,12.54
2023-04-02T09:54:26.716Z,12.54
2023-04-02T09:56:30.555Z,12.60
2023-04-02T09:58:33.346Z,12.70
2023-04-02T10:00:36.481Z,12.78
2023-04-02T10:02:39.692Z,12.84
2023-04-02T10:04:45.123Z,12.70
2023-04-02T10:06:56.258Z,12.64
2023-04-02T10:09:21.266Z,12.72
2023-04-02T10:11:36.606Z,12.75
2023-04-02T10:13:50.392Z,12.84
2023-04-02T10:16:00.905Z,12.84
2023-04-02T10:18:11.587Z,12.80
2023-04-02T10:20:21.077Z,12.85
2023-04-02T10:22:24.714Z,12.82
2023-04-02T10:24:29.802Z,12.74
2023-04-02T10:26:52.725Z,12.54
2023-04-02T10:29:08.210Z,12.27
2023-04-02T10:31:22.578Z,12.08
2023-04-02T10:33:31.369Z,11.74
2023-04-02T10:35:42.733Z,11.56
2023-04-02T10:37:57.498Z,11.51
2023-04-02T10:40:09.859Z,11.44
2023-04-02T10:42:21.384Z,11.28
2023-04-02T10:44:37.459Z,11.34
2023-04-02T10:46:50.437Z,11.23
2023-04-02T10:49:05.339Z,11.08
2023-04-02T10:51:15.049Z,11.08
2023-04-02T10:53:20.425Z,10.94
2023-04-02T10:55:30.663Z,10.88
2023-04-02T10:57:39.284Z,10.75
2023-04-02T10:59:46.362Z,10.80
2023-04-02T11:01:52.075Z,10.79
2023-04-02T11:04:00.209Z,10.79
2023-04-02T11:06:12.078Z,10.67
2023-04-02T11:08:19.321Z,10.61
2023-04-02T11:10:24.552Z,10.66
2023-04-02T11:12:44.020Z,10.67
2023-04-02T11:14:46.987Z,10.73
2023-04-02T11:16:51.051Z,10.55
2023-04-02T11:19:11.178Z,10.57
2023-04-02T11:21:55.152Z,10.61
2023-04-02T11:24:02.445Z,10.63
2023-04-02T11:26:23.797Z,10.47
2023-04-02T11:28:30.493Z,10.40
2023-04-02T11:30:33.751Z,10.45
2023-04-02T11:32:39.387Z,10.46
2023-04-02T11:35:07.034Z,10.43
2023-04-02T11:37:11.784Z,10.52
2023-04-02T11:39:17.427Z,10.51
2023-04-02T11:41:58.126Z,10.52
2023-04-02T11:44:02.689Z,10.42
2023-04-02T11:46:07.027Z,10.53
2023-04-02T11:48:30.654Z,10.53
2023-04-02T11:50:35.807Z,10.41
2023-04-02T11:52:52.973Z,10.38
2023-04-02T11:54:59.151Z,10.49
2023-04-02T11:57:11.701Z,10.45
2023-04-02T11:59:23.998Z,10.37
2023-04-02T12:01:57.666Z,10.28
2023-04-02T12:04:25.212Z,10.37
2023-04-02T12:06:42.542Z,10.35
2023-04-02T12:08:58.258Z,10.38
2023-04-02T12:11:03.382Z,10.26
2023-04-02T12:13:06.436Z,10.29
2023-04-02T12:15:32.946Z,10.34
2023-04-02T12:17:38.002Z,10.30
2023-04-02T12:19:41.035Z,10.20
2023-04-02T12:21:47.302Z,10.24
2023-04-02T12:23:54.018Z,10.16
2023-04-02T12:26:01.222Z,10.16
2023-04-02T12:28:06.383Z,10.12
2023-04-02T12:30:17.829Z,10.28
2023-04-02T12:32:27.202Z,10.19
2023-04-02T12:34:31.997Z,10.12
2023-04-02T12:36:36.174Z,10.10
2023-04-02T12:38:46.759Z,10.21
2023-04-02T12:40:53.825Z,10.12
2023-04-02T12:42:56.732Z,10.10
2023-04-02T12:45:00.412Z,10.30
2023-04-02T12:47:06.064Z,10.41
2023-04-02T12:49:14.916Z,10.20
2023-04-02T12:51:17.855Z,10.21
2023-04-02T12:53:23.449Z,10.34
2023-04-02T12:55:28.010Z,10.31
2023-04-02T12:57:39.785Z,10.29
2023-04-02T12:59:44.602Z,10.22
2023-04-02T13:01:56.634Z,10.35
2023-04-02T13:04:08.284Z,10.30
2023-04-02T13:06:23.372Z,10.29
2023-04-02T13:08:29.462Z,10.46
2023-04-02T13:10:32.654Z,10.52
2023-04-02T13:12:38.507Z,10.59
2023-04-02T13:14:41.806Z,10.56
2023-04-02T13:16:48.658Z,10.75
2023-04-02T13:18:52.062Z,10.69
2023-04-02T13:21:00.349Z,10.59
2023-04-02T13:23:32.335Z,10.64
2023-04-02T13:25:37.643Z,10.70
2023-04-02T13:27:40.450Z,10.66
2023-04-02T13:29:43.265Z,10.57
2023-04-02T13:31:47.473Z,10.63
2023-04-02T13:33:50.381Z,10.63
2023-04-02T13:35:53.216Z,10.52
2023-04-02T13:37:57.764Z,10.50
2023-04-02T13:40:00.690Z,10.52
2023-04-02T13:42:06.582Z,10.51
2023-04-02T13:44:19.639Z,10.55
2023-04-02T13:46:24.076Z,10.62
2023-04-02T13:48:28.757Z,10.67
2023-04-02T13:50:33.329Z,10.67
2023-04-02T13:52:36.332Z,10.54
2023-04-02T13:54:46.762Z,10.71
2023-04-02T13:56:49.665Z,10.74
2023-04-02T13:58:52.834Z,10.64
2023-04-02T14:00:56.094Z,10.43
2023-04-02T14:03:05.654Z,10.38
2023-04-02T14:05:18.751Z,10.43
2023-04-02T14:07:33.086Z,10.43
2023-04-02T14:09:52.991Z,10.44
2023-04-02T14:12:02.191Z,10.40
2023-04-02T14:14:20.514Z,10.40
2023-04-02T14:16:45.814Z,10.39
2023-04-02T14:19:06.395Z,10.27
2023-04-02T14:21:19.546Z,10.26
2023-04-02T14:23:37.543Z,10.29
2023-04-02T14:25:48.558Z,10.12
2023-04-02T14:28:02.883Z,10.07
2023-04-02T14:30:09.775Z,10.06
2023-04-02T14:32:19.572Z,10.11
2023-04-02T14:34:33.095Z,9.95
2023-04-02T14:36:47.485Z,9.91
2023-04-02T14:38:56.688Z,9.89
2023-04-02T14:41:09.311Z,9.73
2023-04-02T14:43:16.953Z,9.74
2023-04-02T14:45:32.028Z,9.96
2023-04-02T14:47:40.042Z,9.81
2023-04-02T14:49:46.809Z,9.74
2023-04-02T14:51:52.869Z,9.67
2023-04-02T14:54:02.861Z,9.60
2023-04-02T14:56:09.054Z,9.58
2023-04-02T14:58:19.838Z,9.62
2023-04-02T15:00:31.616Z,9.51
2023-04-02T15:02:42.273Z,9.49
2023-04-02T15:05:01.559Z,9.50
2023-04-02T15:07:14.801Z,9.39
2023-04-02T15:09:23.602Z,9.35
2023-04-02T15:11:34.383Z,9.46
2023-04-02T15:13:39.466Z,9.25
2023-04-02T15:15:45.760Z,9.25
2023-04-02T15:17:48.618Z,9.25
2023-04-02T15:19:58.845Z,9.14
2023-04-02T15:22:14.756Z,9.14
2023-04-02T15:24:23.957Z,9.18
2023-04-02T15:26:34.649Z,9.17
2023-04-02T15:28:44.685Z,9.06
2023-04-02T15:30:53.787Z,9.08
2023-04-02T15:33:18.134Z,9.05
2023-04-02T15:35:31.540Z,8.90
2023-04-02T15:37:40.849Z,8.79
2023-04-02T15:40:01.660Z,8.87
2023-04-02T15:42:21.160Z,8.99
2023-04-02T15:44:24.069Z,8.72
2023-04-02T15:46:32.402Z,8.88
2023-04-02T15:48:57.296Z,8.80
2023-04-02T15:51:11.163Z,8.67
2023-04-02T15:53:29.201Z,8.63
2023-04-02T15:55:40.740Z,8.65
2023-04-02T15:58:06.400Z,8.48
2023-04-02T16:00:22.183Z,8.39
2023-04-02T16:02:52.731Z,8.39
2023-04-02T16:05:03.351Z,8.37
2023-04-02T16:07:36.708Z,8.43
2023-04-02T16:09:50.906Z,8.32
2023-04-02T16:12:00.563Z,8.32
2023-04-02T16:14:19.595Z,8.20
2023-04-02T16:16:27.875Z,8.14
2023-04-02T16:18:39.195Z,8.31
2023-04-02T16:20:47.268Z,8.38
2023-04-02T16:23:00.381Z,8.26
2023-04-02T16:25:14.497Z,8.18
2023-04-02T16:27:24.674Z,8.29
2023-04-02T16:29:53.795Z,8.15
2023-04-02T16:32:03.259Z,8.19
2023-04-02T16:34:15.938Z,8.13
2023-04-02T16:36:28.362Z,8.09
2023-04-02T16:38:50.053Z,8.04
2023-04-02T16:41:08.229Z,8.17
2023-04-02T16:43:23.021Z,8.14
2023-04-02T16:45:36.585Z,8.09
2023-04-02T16:47:56.065Z,8.08
2023-04-02T16:50:04.801Z,7.93
2023-04-02T16:52:20.248Z,7.92
2023-04-02T16:54:31.707Z,8.08
2023-04-02T16:56:49.576Z,8.01
2023-04-02T16:59:01.050Z,8.04
2023-04-02T17:01:11.884Z,7.89
2023-04-02T17:03:38.604Z,7.97
2023-04-02T17:05:52.858Z,7.97
2023-04-02T17:08:05.834Z,7.94
2023-04-02T17:10:21.308Z,8.00
2023-04-02T17:12:29.762Z,8.01
2023-04-02T17:14:39.980Z,7.95
2023-04-02T17:16:46.210Z,7.82
2023-04-02T17:18:50.547Z,7.90
2023-04-02T17:20:54.307Z,7.85
2023-04-02T17:23:05.929Z,7.80
2023-04-02T17:25:19.290Z,7.65
2023-04-02T17:27:29.674Z,7.89
2023-04-02T17:29:37.228Z,7.85
2023-04-02T17:31:41.977Z,7.90
2023-04-02T17:33:46.164Z,7.92
2023-04-02T17:36:02.614Z,7.80
2023-04-02T17:38:12.697Z,7.86
2023-04-02T17:40:26.190Z,7.80
2023-04-02T17:42:42.806Z,7.78
2023-04-02T17:44:57.209Z,7.69
2023-04-02T17:47:04.562Z,7.69
2023-04-02T17:49:22.792Z,7.59
2023-04-02T17:51:34.410Z,7.71
2023-04-02T17:53:54.736Z,7.71
2023-04-02T17:56:08.874Z,7.64
2023-04-02T17:58:26.671Z,7.62
2023-04-02T18:00:47.239Z,7.61
2023-04-02T18:03:06.371Z,7.55
2023-04-02T18:05:21.435Z,7.59
2023-04-02T18:07:36.708Z,7.66
2023-04-02T18:09:45.205Z,7.63
2023-04-02T18:11:56.492Z,7.66
2023-04-02T18:14:01.354Z,7.66
2023-04-02T18:16:18.847Z,7.55
2023-04-02T18:18:34.335Z,7.56
2023-04-02T18:20:44.706Z,7.59
2023-04-02T18:22:52.890Z,7.42
2023-04-02T18:25:20.761Z,7.49
2023-04-02T18:27:38.127Z,7.41
2023-04-02T18:29:48.218Z,7.34
2023-04-02T18:32:00.784Z,7.21
2023-04-02T18:34:21.632Z,7.36
2023-04-02T18:36:38.126Z,7.44
2023-04-02T18:38:47.344Z,7.56
2023-04-02T18:41:03.710Z,7.31
2023-04-02T18:43:17.088Z,7.27
2023-04-02T18:45:25.938Z,7.27
2023-04-02T18:47:36.194Z,7.36
2023-04-02T18:49:41.317Z,7.41
2023-04-02T18:51:45.889Z,7.36
2023-04-02T18:53:51.977Z,7.35
2023-04-02T18:55:58.200Z,7.32
2023-04-02T18:58:06.382Z,7.25
2023-04-02T19:00:22.968Z,7.25
2023-04-02T19:02:36.597Z,7.47
2023-04-02T19:04:41.148Z,7.62
2023-04-02T19:06:48.607Z,7.47
2023-04-02T19:08:55.985Z,7.53
2023-04-02T19:11:02.126Z,7.46
2023-04-02T19:13:09.072Z,7.34
2023-04-02T19:15:20.152Z,7.33
2023-04-02T19:17:30.978Z,7.29
2023-04-02T19:19:41.069Z,7.38
2023-04-02T19:22:03.879Z,7.17
2023-04-02T19:24:22.588Z,7.34
2023-04-02T19:26:31.520Z,7.26
2023-04-02T19:28:41.879Z,7.23
2023-04-02T19:31:00.205Z,7.27
2023-04-02T19:33:11.549Z,7.36
2023-04-02T19:35:23.813Z,7.42
2023-04-02T19:37:37.650Z,7.36
2023-04-02T19:40:15.257Z,7.35
2023-04-02T19:42:34.469Z,7.40
2023-04-02T19:44:46.695Z,7.28
2023-04-02T19:46:51.433Z,7.36
2023-04-02T19:49:03.155Z,7.32
2023-04-02T19:51:05.962Z,7.33
2023-04-02T19:53:10.477Z,7.26
2023-04-02T19:55:13.532Z,7.28
2023-04-02T19:57:16.885Z,7.43
2023-04-02T19:59:19.796Z,7.20
2023-04-02T20:01:23.247Z,7.40
2023-04-02T20:03:27.354Z,7.33
2023-04-02T20:05:30.092Z,7.18
2023-04-02T20:07:32.915Z,7.26
2023-04-02T20:09:37.082Z,7.11
2023-04-02T20:11:40.063Z,7.15
2023-04-02T20:13:42.938Z,7.07
2023-04-02T20:15:47.165Z,7.05
2023-04-02T20:17:50.144Z,7.27
2023-04-02T20:19:52.992Z,7.18
2023-04-02T20:21:56.251Z,7.13
2023-04-02T20:23:59.082Z,7.00
2023-04-02T20:26:04.544Z,7.14
2023-04-02T20:28:07.539Z,7.13
2023-04-02T20:30:10.908Z,7.18
2023-04-02T20:32:14.046Z,7.03
2023-04-02T20:34:17.031Z,7.03
2023-04-02T20:36:21.686Z,7.06
2023-04-02T20:38:24.453Z,7.05
2023-04-02T20:40:27.384Z,7.05
2023-04-02T20:42:32.281Z,6.99
2023-04-02T20:44:35.439Z,7.11
2023-04-02T20:46:38.484Z,6.96
2023-04-02T20:48:41.653Z,6.99
2023-04-02T20:50:46.120Z,6.92
2023-04-02T20:52:48.985Z,6.84
2023-04-02T20:54:52.994Z,7.09
2023-04-02T20:56:55.830Z,7.17
2023-04-02T20:59:00.066Z,6.85
2023-04-02T21:01:08.423Z,6.95
2023-04-02T21:03:11.781Z,6.88
2023-04-02T21:05:14.742Z,6.91
2023-04-02T21:07:17.542Z,7.05
2023-04-02T21:09:21.367Z,7.06
2023-04-02T21:11:24.553Z,7.05
2023-04-02T21:13:29.748Z,7.04
2023-04-02T21:15:34.624Z,7.03
2023-04-02T21:17:37.695Z,6.86
2023-04-02T21:19:40.641Z,6.99
2023-04-02T21:21:44.211Z,6.94
2023-04-02T21:23:47.052Z,6.77
2023-04-02T21:25:56.360Z,6.84
2023-04-02T21:27:59.417Z,6.95
2023-04-02T21:30:02.201Z,6.73
2023-04-02T21:32:17.939Z,6.76
2023-04-02T21:34:23.437Z,6.76
2023-04-02T21:36:28.684Z,6.81
2023-04-02T21:38:31.616Z,6.69
2023-04-02T21:40:34.407Z,6.70
2023-04-02T21:42:37.180Z,6.71
2023-04-02T21:44:40.070Z,6.74
2023-04-02T21:46:44.217Z,6.67
2023-04-02T21:48:49.753Z,6.76
2023-04-02T21:50:52.617Z,6.81
2023-04-02T21:52:55.560Z,6.69
2023-04-02T21:54:58.331Z,6.66
2023-04-02T21:57:01.188Z,6.61
2023-04-02T21:59:05.465Z,6.72
2023-04-02T22:01:14.004Z,6.78
2023-04-02T22:03:31.094Z,6.77
2023-04-02T22:05:35.955Z,6.68
2023-04-02T22:07:38.891Z,6.81
2023-04-02T22:09:41.643Z,6.72
2023-04-02T22:11:46.438Z,6.75
2023-04-02T22:13:50.299Z,6.97
2023-04-02T22:15:53.064Z,6.80
2023-04-02T22:17:55.958Z,6.87
2023-04-02T22:19:58.719Z,6.68
2023-04-02T22:22:03.036Z,6.87
2023-04-02T22:24:09.380Z,6.62
2023-04-02T22:26:16.148Z,6.52
2023-04-02T22:28:18.946Z,6.56
2023-04-02T22:30:21.724Z,6.64
2023-04-02T22:32:24.599Z,6.60
2023-04-02T22:34:27.432Z,6.74
2023-04-02T22:36:31.108Z,6.71
2023-04-02T22:38:35.603Z,6.69
2023-04-02T22:40:38.500Z,6.70
2023-04-02T22:42:41.261Z,6.50
2023-04-02T22:44:44.176Z,6.60
2023-04-02T22:46:46.963Z,6.74
2023-04-02T22:48:50.807Z,6.82
2023-04-02T22:50:53.792Z,6.68
2023-04-02T22:52:56.805Z,6.74
2023-04-02T22:55:00.907Z,6.67
2023-04-02T22:57:03.828Z,6.60
2023-04-02T22:59:06.709Z,6.53
2023-04-02T23:01:13.217Z,6.53
2023-04-02T23:03:16.165Z,6.52
2023-04-02T23:05:19.380Z,6.56
2023-04-02T23:07:22.235Z,6.54
2023-04-02T23:09:25.054Z,6.60
2023-04-02T23:11:29.428Z,6.67
2023-04-02T23:13:32.924Z,6.70
2023-04-02T23:15:35.703Z,6.77
2023-04-02T23:17:38.652Z,6.72
2023-04-02T23:19:41.456Z,6.68
2023-04-02T23:21:44.352Z,6.57
2023-04-02T23:23:48.149Z,6.49
2023-04-02T23:25:50.972Z,6.55
2023-04-02T23:27:55.594Z,6.55
2023-04-02T23:29:58.523Z,6.45
2023-04-02T23:32:01.340Z,6.35
2023-04-02T23:34:04.580Z,6.34
2023-04-02T23:36:08.502Z,6.34
2023-04-02T23:38:11.355Z,6.31
2023-04-02T23:40:14.165Z,6.40
2023-04-02T23:42:17.432Z,6.34
2023-04-02T23:44:21.554Z,6.34
2023-04-02T23:46:24.597Z,6.34
2023-04-02T23:48:27.431Z,6.37
2023-04-02T23:50:30.431Z,6.32
2023-04-02T23:52:33.271Z,6.30
2023-04-02T23:54:36.053Z,6.40
2023-04-02T23:56:39.106Z,6.32
2023-04-02T23:58:41.866Z,6.28
